Research Triangle Park, North Carolina
Current Conditions -  °F | °C
As of 11:51 PM on Wednesday 26 Nov 2014 (Local Time) from KRDU Reporting Station
Broken Clouds Broken Clouds  
Wind Chill: 36°   Ceiling: 7000
Heat Index: 36°   Visibility: 10mi
Dew Point: 34°   Wind: 0mph
Humidity: 93%   Direction: NA
Pressure: 30.06"   Gusts: NA
Location:  35.9144°N, 78.8655°W
Report Text: KRDU 270451Z 00000KT 10SM FEW045 BKN070 BKN120 02/01 A3006 RMK AO2 SLP179 T00220011 401000017 $
Loading
Personal Weather Stations






























Interactive Weather Map New forecast layout! Learn more

10-Day Weather Forecast

Advertisements
Track Severe Weather on mobile